Time;durP1;ratioP1;P1;durP2;ratioP2;P2;SDS_P1;SDS_P2;PMS_P1;PMS_P2;Temp;Humidity;BMP_temperature;BMP_pressure;BME280_temperature;BME280_humidity;BME280_pressure;Samples;Min_cycle;Max_cycle;Signal;HPM_P1;HPM_P2
2022/11/12 00:00:35;;;;;;;12.27;8.07;;;8.20;86.70;;;;;;5072616;28;20040;-28
2022/11/12 00:03:00;;;;;;;13.38;8.20;;;8.20;86.70;;;;;;5072952;28;20630;-28
2022/11/12 00:05:26;;;;;;;12.80;8.15;;;8.20;86.70;;;;;;5072972;28;20047;-28
2022/11/12 00:07:52;;;;;;;12.32;8.48;;;8.20;86.70;;;;;;5055229;28;20025;-28
2022/11/12 00:10:18;;;;;;;10.63;8.00;;;8.20;86.70;;;;;;5072869;28;20073;-27
2022/11/12 00:12:43;;;;;;;12.77;8.13;;;8.20;86.70;;;;;;5072805;28;20086;-27
2022/11/12 00:15:10;;;;;;;13.35;8.60;;;8.20;86.70;;;;;;5072839;28;20476;-28
2022/11/12 00:17:36;;;;;;;13.35;8.95;;;8.10;86.70;;;;;;5073097;28;20032;-27
2022/11/12 00:20:02;;;;;;;15.45;9.32;;;8.10;86.60;;;;;;5072789;28;20035;-28
2022/11/12 00:22:28;;;;;;;12.68;8.68;;;8.10;86.70;;;;;;5072758;28;20027;-26
2022/11/12 00:24:53;;;;;;;14.90;8.95;;;8.10;86.70;;;;;;5072681;28;20016;-26
2022/11/12 00:27:19;;;;;;;13.63;8.55;;;8.10;86.80;;;;;;5072789;28;20023;-30
2022/11/12 00:29:45;;;;;;;13.73;8.85;;;8.00;86.80;;;;;;5072779;28;20029;-27
2022/11/12 00:32:11;;;;;;;15.07;9.43;;;8.00;86.80;;;;;;5072633;28;20142;-28
2022/11/12 00:34:36;;;;;;;15.10;9.00;;;8.00;86.80;;;;;;5072556;28;20452;-27
2022/11/12 00:37:02;;;;;;;13.13;9.25;;;8.00;86.90;;;;;;5072662;28;20108;-29
2022/11/12 00:39:28;;;;;;;13.23;8.95;;;8.00;86.90;;;;;;5072344;28;20032;-29
2022/11/12 00:41:54;;;;;;;13.05;8.82;;;8.00;86.90;;;;;;5072299;28;20017;-32
2022/11/12 00:44:20;;;;;;;10.55;7.88;;;8.00;86.90;;;;;;5072378;28;20024;-27
2022/11/12 00:46:46;;;;;;;11.35;8.27;;;8.00;86.90;;;;;;5072260;28;20021;-30
2022/11/12 00:49:12;;;;;;;13.13;8.43;;;8.00;86.90;;;;;;5072306;28;20056;-29
2022/11/12 00:51:37;;;;;;;10.52;7.70;;;7.90;86.90;;;;;;5072144;28;20016;-28
2022/11/12 00:54:03;;;;;;;10.27;7.38;;;7.90;86.90;;;;;;5072107;28;20078;-29
2022/11/12 00:56:29;;;;;;;11.35;7.20;;;7.90;86.80;;;;;;5072190;28;20031;-32
2022/11/12 00:58:56;;;;;;;10.48;7.45;;;7.90;86.80;;;;;;5072080;28;20029;-27
2022/11/12 01:01:21;;;;;;;10.73;7.50;;;7.90;86.90;;;;;;5052183;28;20104;-28
2022/11/12 01:03:47;;;;;;;14.25;9.70;;;7.90;87.00;;;;;;5051978;28;20118;-27
2022/11/12 01:06:19;;;;;;;13.70;8.23;;;7.80;86.90;;;;;;5051662;28;20029;-28
2022/11/12 01:08:47;;;;;;;12.38;8.25;;;7.90;86.90;;;;;;5051824;28;20079;-32
2022/11/12 01:11:15;;;;;;;13.52;7.50;;;7.80;86.90;;;;;;5051712;28;20032;-29
2022/11/12 01:13:44;;;;;;;12.05;7.13;;;7.80;86.90;;;;;;5051766;28;20027;-32
2022/11/12 01:16:18;;;;;;;12.63;7.95;;;7.80;86.90;;;;;;5051918;28;20083;-31
2022/11/12 01:18:44;;;;;;;11.90;8.25;;;7.80;87.00;;;;;;5051539;28;20067;-27
2022/11/12 01:21:10;;;;;;;11.00;7.55;;;7.80;87.00;;;;;;5051468;28;20028;-27
2022/11/12 01:23:38;;;;;;;10.52;6.95;;;7.70;87.00;;;;;;5051496;28;20013;-28
2022/11/12 01:26:12;;;;;;;10.45;7.45;;;7.80;87.00;;;;;;5051419;28;20025;-27
2022/11/12 01:28:39;;;;;;;10.43;6.80;;;7.70;86.90;;;;;;5051503;28;20021;-27
2022/11/12 01:31:25;;;;;;;12.25;7.97;;;7.70;86.90;;;;;;5050964;28;20028;-28
2022/11/12 01:33:59;;;;;;;12.77;7.80;;;7.70;86.90;;;;;;5051376;28;20029;-27
2022/11/12 01:36:27;;;;;;;14.98;8.40;;;7.60;86.90;;;;;;5051522;28;20453;-42
2022/11/12 01:38:54;;;;;;;12.45;8.85;;;7.60;86.90;;;;;;5051222;28;20056;-35
2022/11/12 01:41:25;;;;;;;13.80;8.57;;;7.60;86.90;;;;;;5051256;28;20052;-41
2022/11/12 01:44:16;;;;;;;14.27;8.60;;;7.60;87.00;;;;;;5049904;28;20017;-42
2022/11/12 01:46:57;;;;;;;13.02;8.13;;;7.60;87.00;;;;;;5051333;28;20025;-38
2022/11/12 01:49:44;;;;;;;11.57;8.00;;;7.60;86.90;;;;;;5051172;28;20033;-42
2022/11/12 01:52:19;;;;;;;11.95;7.07;;;7.60;86.90;;;;;;5049827;28;20033;-37
2022/11/12 01:54:48;;;;;;;11.85;7.47;;;7.50;86.90;;;;;;5051290;28;20028;-43
2022/11/12 01:57:16;;;;;;;10.98;7.15;;;7.50;86.90;;;;;;5051191;28;20021;-36
2022/11/12 01:59:46;;;;;;;10.18;6.88;;;7.50;87.00;;;;;;5057047;28;20500;-40
2022/11/12 02:02:12;;;;;;;8.48;6.95;;;7.50;87.00;;;;;;5071242;28;20114;-37
2022/11/12 02:04:39;;;;;;;8.63;6.53;;;7.50;87.00;;;;;;5071098;28;20048;-41
2022/11/12 02:07:07;;;;;;;11.60;7.25;;;7.50;87.10;;;;;;5071056;28;20053;-40
2022/11/12 02:09:33;;;;;;;11.60;6.88;;;7.50;87.10;;;;;;5071033;28;20036;-41
2022/11/12 02:11:59;;;;;;;9.60;7.05;;;7.50;87.10;;;;;;5071271;28;20027;-44
2022/11/12 02:14:25;;;;;;;11.52;7.07;;;7.50;87.20;;;;;;5071145;28;20082;-32
2022/11/12 02:16:51;;;;;;;10.63;6.63;;;7.50;87.20;;;;;;5053181;28;20020;-33
2022/11/12 02:19:17;;;;;;;8.70;6.95;;;7.50;87.10;;;;;;5071174;28;20024;-32
2022/11/12 02:21:43;;;;;;;11.25;7.10;;;7.50;87.10;;;;;;5053093;28;20019;-33
2022/11/12 02:24:12;;;;;;;10.60;6.15;;;7.40;87.10;;;;;;5071077;28;20097;-33
2022/11/12 02:26:40;;;;;;;9.50;6.57;;;7.40;87.10;;;;;;5071081;28;20507;-34
2022/11/12 02:29:06;;;;;;;11.57;6.97;;;7.40;87.00;;;;;;5071008;28;20024;-32
2022/11/12 02:31:31;;;;;;;10.45;6.57;;;7.40;87.10;;;;;;5071217;28;20050;-30
2022/11/12 02:33:57;;;;;;;12.18;7.00;;;7.40;87.10;;;;;;5070967;28;20104;-34
2022/11/12 02:36:23;;;;;;;11.13;7.22;;;7.40;87.10;;;;;;5052934;28;20020;-32
2022/11/12 02:38:48;;;;;;;12.75;7.25;;;7.30;87.10;;;;;;5070911;28;20035;-35
2022/11/12 02:41:14;;;;;;;9.35;6.45;;;7.30;87.10;;;;;;5070792;28;20057;-32
2022/11/12 02:43:40;;;;;;;11.70;6.88;;;7.30;87.10;;;;;;5074719;28;20472;-34
2022/11/12 02:46:06;;;;;;;10.27;6.47;;;7.30;87.10;;;;;;5074584;28;20020;-37
2022/11/12 02:48:32;;;;;;;9.38;6.75;;;7.30;87.10;;;;;;5074563;28;20100;-32
2022/11/12 02:50:57;;;;;;;11.27;6.65;;;7.20;87.20;;;;;;5074352;28;20444;-32
2022/11/12 02:53:23;;;;;;;10.90;6.93;;;7.30;87.30;;;;;;5074161;28;20028;-35
2022/11/12 02:55:49;;;;;;;9.25;6.65;;;7.30;87.20;;;;;;5074378;28;20096;-34
2022/11/12 02:58:15;;;;;;;8.43;6.10;;;7.30;87.20;;;;;;5074260;28;20024;-34
2022/11/12 03:00:40;;;;;;;9.30;7.10;;;7.30;87.20;;;;;;5073911;28;20127;-34
2022/11/12 03:03:06;;;;;;;9.25;6.75;;;7.30;87.20;;;;;;5073881;28;20403;-32
2022/11/12 03:05:33;;;;;;;9.82;6.40;;;7.20;87.10;;;;;;5074029;28;20024;-35
2022/11/12 03:08:01;;;;;;;8.93;6.47;;;7.30;87.20;;;;;;5073908;28;20479;-37
2022/11/12 03:10:27;;;;;;;11.98;6.82;;;7.30;87.10;;;;;;5074067;28;20551;-42
2022/11/12 03:12:55;;;;;;;9.70;6.75;;;7.30;87.00;;;;;;5074366;28;20365;-32
2022/11/12 03:15:21;;;;;;;12.02;6.53;;;7.30;87.10;;;;;;5074004;28;20158;-35
2022/11/12 03:17:46;;;;;;;9.27;6.45;;;7.20;87.00;;;;;;5074352;28;20059;-31
2022/11/12 03:20:13;;;;;;;8.65;6.07;;;7.20;87.10;;;;;;5073804;28;20294;-32
2022/11/12 03:22:39;;;;;;;7.80;5.68;;;7.20;87.10;;;;;;5073746;28;20028;-32
2022/11/12 03:25:06;;;;;;;8.10;6.28;;;7.20;87.10;;;;;;5073834;28;20033;-31
2022/11/12 03:27:31;;;;;;;8.93;6.10;;;7.20;87.10;;;;;;5073748;28;20568;-32
2022/11/12 03:29:57;;;;;;;9.95;6.60;;;7.20;87.10;;;;;;5073704;28;20059;-32
2022/11/12 03:32:23;;;;;;;10.43;6.32;;;7.10;87.10;;;;;;5073644;28;20025;-32
2022/11/12 03:34:49;;;;;;;9.07;6.25;;;7.10;87.10;;;;;;5073732;28;20027;-33
2022/11/12 03:37:14;;;;;;;8.23;6.65;;;7.10;87.20;;;;;;5055301;28;20561;-33
2022/11/12 03:39:40;;;;;;;9.73;5.75;;;7.10;87.20;;;;;;5073382;28;20032;-33
2022/11/12 03:42:06;;;;;;;8.85;5.82;;;7.10;87.20;;;;;;5073426;28;20024;-32
2022/11/12 03:44:32;;;;;;;8.90;6.20;;;7.10;87.20;;;;;;5073329;28;20074;-32
2022/11/12 03:46:58;;;;;;;8.65;6.25;;;7.10;87.20;;;;;;5073331;28;20017;-34
2022/11/12 03:49:23;;;;;;;7.53;6.20;;;7.10;87.90;;;;;;5073284;28;20158;-32
2022/11/12 03:51:49;;;;;;;8.27;5.35;;;7.10;87.30;;;;;;5073290;28;20472;-33
2022/11/12 03:54:14;;;;;;;11.25;6.68;;;7.10;87.20;;;;;;5054682;28;20123;-32
2022/11/12 03:56:40;;;;;;;11.15;6.32;;;7.10;87.20;;;;;;5073133;28;20024;-33
2022/11/12 03:59:06;;;;;;;8.95;6.30;;;7.10;87.20;;;;;;5073118;28;20031;-32
2022/11/12 04:01:31;;;;;;;9.68;6.07;;;7.10;87.20;;;;;;5073122;28;20146;-31
2022/11/12 04:03:57;;;;;;;8.40;5.97;;;7.10;87.20;;;;;;5073167;28;20036;-31
2022/11/12 04:09:07;;;;;;;11.18;6.32;;;7.00;87.20;;;;;;5072994;28;20594;-32
2022/11/12 04:11:33;;;;;;;8.93;5.95;;;7.00;87.20;;;;;;5054951;28;20060;-31
2022/11/12 04:13:59;;;;;;;8.65;5.57;;;6.90;87.20;;;;;;5072890;28;20024;-32
2022/11/12 04:22:06;;;;;;;12.35;6.38;;;7.00;87.30;;;;;;5072881;28;20032;-32
2022/11/12 04:27:28;;;;;;;9.00;5.80;;;7.00;87.30;;;;;;5072844;28;20032;-31
2022/11/12 04:32:53;;;;;;;9.35;6.35;;;7.00;87.30;;;;;;5072763;28;20094;-32
2022/11/12 04:35:20;;;;;;;9.05;5.95;;;7.00;87.20;;;;;;5072455;28;20340;-32
2022/11/12 04:37:46;;;;;;;9.77;6.32;;;7.00;87.20;;;;;;5072331;28;20074;-31
2022/11/12 04:45:50;;;;;;;7.72;5.55;;;6.90;87.30;;;;;;5072218;28;20164;-31
2022/11/12 04:48:16;;;;;;;10.57;6.38;;;6.90;87.30;;;;;;5072187;28;20029;-32
2022/11/12 04:50:44;;;;;;;8.27;6.25;;;6.90;87.20;;;;;;5072257;28;20020;-31
2022/11/12 04:53:10;;;;;;;9.73;5.85;;;6.80;87.20;;;;;;5072074;28;20035;-33
2022/11/12 04:55:35;;;;;;;9.35;6.30;;;6.80;87.30;;;;;;5072124;28;20024;-31
2022/11/12 04:58:01;;;;;;;9.63;5.97;;;6.80;87.30;;;;;;5072396;28;20020;-32
2022/11/12 05:00:27;;;;;;;9.45;6.15;;;6.80;87.30;;;;;;5071906;28;20083;-28
2022/11/12 05:02:52;;;;;;;8.50;6.05;;;6.80;87.30;;;;;;5054057;28;20112;-29
2022/11/12 05:05:18;;;;;;;9.40;5.90;;;6.80;87.30;;;;;;5053241;28;20103;-29
2022/11/12 05:07:43;;;;;;;8.07;6.22;;;6.80;88.00;;;;;;5071987;28;20026;-28
2022/11/12 05:10:09;;;;;;;8.90;5.78;;;6.80;87.30;;;;;;5071779;28;20056;-29
2022/11/12 05:12:35;;;;;;;9.13;6.25;;;6.80;87.30;;;;;;5071910;28;20102;-29
2022/11/12 05:15:01;;;;;;;9.95;6.38;;;6.80;87.40;;;;;;5071868;28;20028;-28
2022/11/12 05:17:27;;;;;;;10.35;6.80;;;6.80;87.30;;;;;;5071895;28;20024;-31
2022/11/12 05:19:53;;;;;;;11.77;5.90;;;6.70;87.30;;;;;;5071580;28;20395;-29
2022/11/12 05:22:18;;;;;;;7.78;5.55;;;6.70;87.30;;;;;;5071529;28;20020;-30
2022/11/12 05:24:44;;;;;;;8.80;5.75;;;6.70;87.30;;;;;;5071893;28;20379;-31
2022/11/12 05:27:17;;;;;;;8.38;5.78;;;6.70;87.20;;;;;;5071522;28;20491;-31
2022/11/12 05:29:43;;;;;;;8.30;5.63;;;6.70;87.20;;;;;;5071727;28;20024;-28
2022/11/12 05:32:11;;;;;;;7.93;5.68;;;6.70;87.20;;;;;;5071413;28;20025;-29
2022/11/12 05:34:37;;;;;;;11.23;5.95;;;6.70;87.30;;;;;;5071577;28;20038;-29
2022/11/12 05:37:05;;;;;;;10.07;5.78;;;6.70;87.30;;;;;;5071581;28;20387;-28
2022/11/12 05:39:30;;;;;;;7.95;5.70;;;6.70;87.30;;;;;;5071633;28;20032;-28
2022/11/12 05:41:56;;;;;;;9.88;6.00;;;6.70;87.30;;;;;;5071345;28;20033;-29
2022/11/12 05:44:22;;;;;;;7.82;5.72;;;6.70;87.30;;;;;;5053410;28;20024;-31
2022/11/12 05:46:49;;;;;;;9.05;6.07;;;6.70;87.30;;;;;;5071307;28;20087;-28
2022/11/12 05:49:15;;;;;;;10.25;5.53;;;6.70;87.30;;;;;;5071297;28;20028;-30
2022/11/12 05:51:41;;;;;;;8.05;5.82;;;6.70;87.30;;;;;;5071395;28;20013;-29
2022/11/12 05:54:07;;;;;;;9.05;6.22;;;6.70;87.20;;;;;;5071335;28;20119;-28
2022/11/12 05:56:33;;;;;;;8.60;5.90;;;6.60;87.30;;;;;;5053272;28;20487;-28
2022/11/12 05:59:00;;;;;;;9.27;5.78;;;6.60;87.30;;;;;;5071059;28;20023;-31
2022/11/12 06:01:26;;;;;;;7.25;5.60;;;6.60;87.90;;;;;;5071183;28;20077;-29
2022/11/12 06:03:52;;;;;;;9.07;6.10;;;6.60;87.90;;;;;;5071143;28;20554;-28
2022/11/12 06:06:17;;;;;;;8.93;6.03;;;6.60;87.30;;;;;;5071117;28;20032;-30
2022/11/12 06:08:43;;;;;;;10.05;6.05;;;6.60;87.40;;;;;;5071360;28;20020;-28
2022/11/12 06:11:08;;;;;;;7.65;5.80;;;6.60;87.40;;;;;;5071092;28;20020;-28
2022/11/12 06:13:34;;;;;;;7.22;5.57;;;6.60;87.40;;;;;;5071383;28;20069;-28
2022/11/12 06:16:00;;;;;;;9.57;6.18;;;6.60;87.40;;;;;;5072384;28;20025;-35
2022/11/12 06:18:26;;;;;;;7.97;5.68;;;6.50;87.40;;;;;;5075272;28;20549;-32
2022/11/12 06:23:36;;;;;;;8.65;5.28;;;6.60;87.40;;;;;;5075430;28;20157;-33
2022/11/12 06:26:02;;;;;;;8.52;6.15;;;6.60;87.40;;;;;;5075577;28;20472;-28
2022/11/12 06:28:28;;;;;;;8.18;5.72;;;6.60;87.30;;;;;;5074988;28;20059;-30
2022/11/12 06:30:53;;;;;;;7.75;5.78;;;6.70;87.30;;;;;;5074956;28;20028;-28
2022/11/12 06:33:19;;;;;;;6.63;5.00;;;6.70;87.20;;;;;;5074792;28;20024;-28
2022/11/12 06:35:45;;;;;;;7.05;5.38;;;6.70;87.10;;;;;;5074940;28;20144;-29
2022/11/12 06:38:10;;;;;;;8.75;5.47;;;6.70;87.20;;;;;;5074721;28;20398;-31
2022/11/12 06:40:36;;;;;;;7.07;5.20;;;6.70;87.10;;;;;;5074671;28;20086;-28
2022/11/12 06:43:02;;;;;;;10.90;5.20;;;6.70;87.10;;;;;;5074863;28;20070;-28
2022/11/12 06:45:27;;;;;;;6.90;5.63;;;6.70;87.10;;;;;;5074724;28;20051;-29
2022/11/12 06:47:57;;;;;;;8.00;5.50;;;6.70;87.10;;;;;;5074749;28;20016;-28
2022/11/12 06:50:23;;;;;;;8.85;5.50;;;6.70;87.10;;;;;;5074761;28;20103;-33
2022/11/12 06:52:49;;;;;;;10.57;6.00;;;6.70;87.00;;;;;;5056914;28;20403;-31
2022/11/12 06:55:14;;;;;;;8.82;5.35;;;6.70;87.00;;;;;;5074369;28;20024;-29
2022/11/12 06:57:40;;;;;;;9.82;5.90;;;6.70;86.90;;;;;;5074351;28;20040;-31
2022/11/12 07:00:06;;;;;;;6.60;5.13;;;6.70;86.90;;;;;;5073990;28;20404;-31
2022/11/12 07:02:32;;;;;;;7.72;5.25;;;6.70;86.90;;;;;;5074207;28;20036;-28
2022/11/12 07:04:57;;;;;;;9.23;5.43;;;6.70;86.90;;;;;;5073992;28;20468;-29
2022/11/12 07:07:23;;;;;;;9.27;6.47;;;6.80;86.90;;;;;;5074185;28;20031;-28
2022/11/12 07:09:48;;;;;;;7.88;5.38;;;6.70;86.70;;;;;;5074002;28;20024;-29
2022/11/12 07:12:14;;;;;;;10.32;5.80;;;6.70;86.90;;;;;;5074154;28;20117;-28
2022/11/12 07:14:39;;;;;;;8.48;5.88;;;6.70;86.90;;;;;;5074092;28;20028;-29
2022/11/12 07:17:05;;;;;;;7.47;5.43;;;6.70;86.80;;;;;;5074049;28;20036;-29
2022/11/12 07:19:30;;;;;;;7.97;5.10;;;6.70;86.80;;;;;;5074313;28;20024;-30
2022/11/12 07:21:56;;;;;;;6.93;5.32;;;6.80;86.90;;;;;;5074351;28;20029;-29
2022/11/12 07:24:21;;;;;;;8.20;5.43;;;6.70;86.80;;;;;;5074038;28;20095;-29
2022/11/12 07:26:47;;;;;;;9.65;5.72;;;6.80;86.80;;;;;;5074239;28;20092;-29
2022/11/12 07:29:13;;;;;;;8.48;5.57;;;6.80;86.70;;;;;;5073401;28;20051;-30
2022/11/12 07:31:38;;;;;;;10.68;5.35;;;6.80;86.70;;;;;;5055812;28;20059;-29
2022/11/12 07:34:04;;;;;;;13.30;6.07;;;6.80;86.70;;;;;;5073802;28;20074;-30
2022/11/12 07:36:29;;;;;;;9.05;5.82;;;6.80;86.60;;;;;;5073928;28;20041;-33
2022/11/12 07:38:55;;;;;;;6.93;5.45;;;6.90;86.60;;;;;;5073656;28;20021;-30
2022/11/12 07:41:24;;;;;;;8.00;5.78;;;6.90;86.70;;;;;;5055539;28;20036;-28
2022/11/12 07:43:51;;;;;;;8.73;5.85;;;7.00;86.70;;;;;;5073525;28;20027;-36
2022/11/12 07:46:20;;;;;;;6.63;5.03;;;7.00;86.60;;;;;;5073543;28;20100;-29
2022/11/12 07:48:46;;;;;;;7.68;5.65;;;7.10;86.60;;;;;;5073749;28;20039;-29
2022/11/12 07:51:23;;;;;;;9.43;5.45;;;7.10;86.50;;;;;;5073642;28;20028;-29
2022/11/12 07:53:51;;;;;;;7.32;5.25;;;7.20;86.50;;;;;;5073567;28;20253;-30
2022/11/12 07:56:19;;;;;;;8.52;5.55;;;7.30;86.40;;;;;;5055244;28;20107;-33
2022/11/12 07:58:45;;;;;;;9.35;5.93;;;7.40;86.30;;;;;;5073720;28;20029;-29
2022/11/12 08:01:20;;;;;;;6.55;5.15;;;7.50;86.30;;;;;;5073079;28;20098;-29
2022/11/12 08:03:45;;;;;;;8.10;5.13;;;7.50;86.20;;;;;;5073371;28;20368;-29
2022/11/12 08:06:11;;;;;;;8.55;5.72;;;7.60;86.10;;;;;;5073154;28;20023;-28
2022/11/12 08:08:36;;;;;;;6.85;5.05;;;7.70;86.00;;;;;;5055117;28;20099;-28
2022/11/12 08:11:02;;;;;;;6.88;5.35;;;7.70;85.90;;;;;;5073090;28;20028;-29
2022/11/12 08:13:27;;;;;;;8.75;5.65;;;7.80;85.90;;;;;;5073316;28;20017;-29
2022/11/12 08:15:56;;;;;;;6.85;4.88;;;7.90;85.90;;;;;;5072925;28;20020;-30
2022/11/12 08:18:22;;;;;;;7.32;5.05;;;7.90;85.90;;;;;;5072769;28;20025;-29
2022/11/12 08:20:47;;;;;;;6.53;5.03;;;8.00;85.80;;;;;;5072640;28;20055;-29
2022/11/12 08:23:13;;;;;;;7.40;5.10;;;8.00;85.70;;;;;;5072627;28;20319;-30
2022/11/12 08:25:38;;;;;;;6.22;5.03;;;8.10;85.70;;;;;;5072654;28;20020;-31
2022/11/12 08:28:04;;;;;;;8.27;5.10;;;8.20;85.60;;;;;;5072675;28;20325;-31
2022/11/12 08:30:30;;;;;;;8.02;5.40;;;8.20;85.50;;;;;;5054972;28;20172;-30
2022/11/12 08:33:03;;;;;;;8.35;5.40;;;8.30;85.50;;;;;;5072704;28;20613;-33
2022/11/12 08:35:29;;;;;;;;;;;8.30;85.40;;;;;;5073352;28;20380;-31
2022/11/12 08:38:02;;;;;;;7.53;5.32;;;8.40;85.40;;;;;;5072261;28;19904;-31
2022/11/12 08:40:29;;;;;;;8.70;5.75;;;8.40;85.30;;;;;;5071102;28;20028;-29
2022/11/12 08:42:59;;;;;;;8.07;5.95;;;8.40;85.30;;;;;;5072195;28;20028;-30
2022/11/12 08:45:25;;;;;;;8.43;6.15;;;8.50;85.20;;;;;;5054199;28;20115;-29
2022/11/12 08:47:51;;;;;;;9.02;5.95;;;8.50;85.10;;;;;;5072323;28;20480;-31
2022/11/12 08:50:17;;;;;;;9.23;6.50;;;8.60;85.10;;;;;;5072314;28;20017;-29
2022/11/12 08:52:42;;;;;;;9.13;6.00;;;8.60;85.00;;;;;;5053955;28;20505;-34
2022/11/12 08:55:08;;;;;;;7.57;5.75;;;8.70;85.00;;;;;;5072017;28;20039;-30
2022/11/12 08:57:42;;;;;;;9.15;6.50;;;8.70;84.90;;;;;;5071914;28;20353;-36
2022/11/12 09:00:11;;;;;;;;;;;8.80;84.80;;;;;;5072229;28;20054;-28
2022/11/12 09:02:37;;;;;;;9.73;5.63;;;8.90;84.80;;;;;;5071900;28;19957;-28
2022/11/12 09:05:03;;;;;;;7.90;5.72;;;8.90;84.70;;;;;;5071669;28;20032;-30
2022/11/12 09:07:29;;;;;;;8.82;5.85;;;8.90;84.60;;;;;;5071746;28;20016;-29
2022/11/12 09:09:54;;;;;;;9.73;6.30;;;9.00;84.60;;;;;;5071860;28;20104;-28
2022/11/12 09:12:20;;;;;;;8.02;5.80;;;9.10;84.60;;;;;;5072040;28;20028;-36
2022/11/12 09:14:45;;;;;;;8.65;5.53;;;9.10;84.50;;;;;;5071838;28;20031;-32
2022/11/12 09:17:12;;;;;;;7.25;5.70;;;9.20;84.50;;;;;;5071692;28;20020;-28
2022/11/12 09:19:37;;;;;;;6.97;5.03;;;9.20;84.40;;;;;;5071625;28;20028;-28
2022/11/12 09:22:03;;;;;;;10.70;6.22;;;9.30;84.30;;;;;;5071608;28;20017;-29
2022/11/12 09:24:29;;;;;;;8.35;5.88;;;9.30;84.20;;;;;;5072049;28;20021;-29
2022/11/12 09:26:54;;;;;;;7.75;5.40;;;9.40;84.20;;;;;;5071707;28;20025;-29
2022/11/12 09:29:20;;;;;;;10.88;5.93;;;9.50;84.10;;;;;;5071734;28;20017;-31
2022/11/12 09:31:46;;;;;;;8.43;5.90;;;9.50;84.00;;;;;;5071856;28;20031;-29
2022/11/12 09:34:11;;;;;;;8.68;5.50;;;9.50;84.00;;;;;;5071971;28;20017;-33
2022/11/12 09:36:37;;;;;;;7.63;5.47;;;9.60;83.90;;;;;;5071594;28;20575;-30
2022/11/12 09:39:03;;;;;;;7.93;6.03;;;9.70;83.90;;;;;;5071409;28;20476;-33
2022/11/12 09:41:34;;;;;;;7.53;5.30;;;9.70;83.80;;;;;;5071079;28;20024;-32
2022/11/12 09:44:03;;;;;;;7.57;5.82;;;9.80;83.70;;;;;;5071466;28;20091;-36
2022/11/12 09:46:44;;;;;;;8.13;5.85;;;9.80;83.60;;;;;;5071287;28;20028;-34
2022/11/12 09:49:24;;;;;;;6.72;5.57;;;9.80;83.60;;;;;;5071507;28;20028;-33
2022/11/12 09:52:14;;;;;;;9.60;5.68;;;9.90;83.50;;;;;;5070945;28;20074;-32
2022/11/12 09:54:41;;;;;;;8.68;5.90;;;10.00;83.40;;;;;;5071416;28;20035;-30
2022/11/12 09:57:11;;;;;;;9.20;5.38;;;10.00;83.40;;;;;;5071733;28;20031;-34
2022/11/12 09:59:40;;;;;;;9.48;6.00;;;10.10;83.40;;;;;;5071613;28;20036;-34
2022/11/12 10:02:26;;;;;;;7.03;5.60;;;10.20;83.30;;;;;;5071593;28;20091;-32
2022/11/12 10:05:26;;;;;;;8.48;6.05;;;10.20;83.20;;;;;;5072094;28;20055;-31
2022/11/12 10:08:28;;;;;;;6.97;5.30;;;10.30;83.10;;;;;;5071206;28;20025;-31
2022/11/12 10:11:23;;;;;;;8.45;5.80;;;10.40;83.00;;;;;;5071372;28;20063;-30
2022/11/12 10:14:21;;;;;;;6.93;5.47;;;10.50;82.90;;;;;;5070955;28;20051;-36
2022/11/12 10:17:08;;;;;;;7.00;4.97;;;10.50;82.70;;;;;;5071238;28;20032;-31
2022/11/12 10:19:59;;;;;;;8.02;5.47;;;10.60;82.60;;;;;;5070932;28;20023;-30
2022/11/12 10:22:39;;;;;;;6.45;5.18;;;10.70;82.50;;;;;;5071311;28;20017;-31
2022/11/12 10:25:18;;;;;;;8.88;5.72;;;10.70;82.50;;;;;;5071082;28;20591;-32
2022/11/12 10:27:44;;;;;;;6.05;5.25;;;10.80;82.30;;;;;;5071125;28;20017;-35
2022/11/12 10:30:13;;;;;;;6.90;5.25;;;10.90;82.30;;;;;;5071002;28;20070;-33
2022/11/12 10:32:43;;;;;;;7.18;5.13;;;11.00;82.10;;;;;;5070750;28;20021;-31
2022/11/12 10:35:11;;;;;;;6.00;4.90;;;11.00;82.00;;;;;;5070936;28;20464;-39
2022/11/12 10:37:49;;;;;;;5.55;4.95;;;11.10;81.90;;;;;;5070817;28;20483;-36
2022/11/12 10:40:23;;;;;;;8.60;5.60;;;11.20;81.80;;;;;;5070565;28;20036;-41
2022/11/12 10:43:15;;;;;;;6.28;5.07;;;11.30;81.70;;;;;;5070983;28;20043;-29
2022/11/12 10:45:42;;;;;;;6.15;4.43;;;11.40;81.50;;;;;;5070650;28;20032;-27
2022/11/12 10:48:31;;;;;;;6.28;4.80;;;11.40;81.40;;;;;;5070914;28;20028;-37
2022/11/12 10:50:57;;;;;;;6.10;4.78;;;11.50;81.20;;;;;;5071127;28;20495;-27
2022/11/12 10:53:35;;;;;;;5.82;4.65;;;11.60;81.10;;;;;;5070831;28;20028;-28
2022/11/12 10:56:04;;;;;;;6.75;4.93;;;11.70;80.90;;;;;;5052755;28;20025;-27
2022/11/12 10:58:29;;;;;;;7.07;5.00;;;11.70;80.80;;;;;;5070205;28;20036;-32
2022/11/12 11:01:13;;;;;;;7.80;4.85;;;11.80;80.80;;;;;;5070402;28;20099;-27
2022/11/12 11:03:52;;;;;;;5.68;4.90;;;11.90;80.60;;;;;;5073231;28;20120;-27
2022/11/12 11:06:25;;;;;;;7.70;5.28;;;11.90;81.00;;;;;;5074382;28;20044;-27
2022/11/12 11:08:52;;;;;;;5.97;5.00;;;12.00;80.30;;;;;;5074456;28;20060;-26
2022/11/12 11:11:24;;;;;;;7.53;4.90;;;12.10;80.20;;;;;;5074632;28;20032;-37
2022/11/12 11:13:51;;;;;;;6.63;4.75;;;12.10;80.10;;;;;;5074658;28;20021;-38
2022/11/12 11:16:21;;;;;;;5.70;5.10;;;12.20;80.10;;;;;;5074410;28;20036;-41
2022/11/12 11:19:05;;;;;;;7.15;4.95;;;12.30;80.00;;;;;;5074850;28;20090;-32
2022/11/12 11:21:37;;;;;;;7.57;5.22;;;12.30;79.90;;;;;;5056041;28;20058;-32
2022/11/12 11:24:08;;;;;;;7.82;5.38;;;12.40;79.90;;;;;;5074279;28;20043;-28
2022/11/12 11:26:53;;;;;;;7.68;4.88;;;12.40;79.70;;;;;;5074182;28;20453;-30
2022/11/12 11:29:45;;;;;;;7.10;5.30;;;12.50;79.50;;;;;;5074303;28;20039;-26
2022/11/12 11:32:33;;;;;;;6.72;5.22;;;12.60;79.50;;;;;;5055999;28;20033;-30
2022/11/12 11:35:35;;;;;;;7.90;5.13;;;12.60;79.40;;;;;;5055983;28;20037;-32
2022/11/12 11:38:21;;;;;;;7.10;5.00;;;12.70;79.40;;;;;;5073603;28;20064;-31
2022/11/12 11:41:15;;;;;;;6.72;5.18;;;12.70;79.20;;;;;;5055453;28;20376;-29
2022/11/12 11:44:06;;;;;;;6.40;4.70;;;12.80;79.10;;;;;;5055913;28;20098;-33
2022/11/12 11:47:09;;;;;;;6.30;5.20;;;12.80;79.10;;;;;;5073552;28;20029;-30
2022/11/12 11:49:59;;;;;;;7.78;4.88;;;12.90;79.00;;;;;;5073455;28;20038;-27
2022/11/12 11:53:09;;;;;;;6.15;4.72;;;13.00;78.90;;;;;;5073551;28;20024;-30
2022/11/12 11:55:42;;;;;;;6.85;4.95;;;13.10;78.80;;;;;;5055612;28;20062;-36
2022/11/12 11:58:45;;;;;;;7.13;4.60;;;13.10;78.70;;;;;;5073460;28;20060;-32
2022/11/12 12:01:22;;;;;;;6.50;4.82;;;13.20;78.70;;;;;;5073112;28;20048;-28
2022/11/12 12:04:29;;;;;;;5.82;4.65;;;13.20;78.60;;;;;;5073375;28;20116;-31
2022/11/12 12:07:36;;;;;;;6.60;4.97;;;13.30;78.40;;;;;;5073347;28;20492;-29
2022/11/12 12:10:11;;;;;;;5.85;4.72;;;13.40;78.30;;;;;;5073312;28;20021;-31
2022/11/12 12:13:03;;;;;;;6.55;4.68;;;13.40;78.20;;;;;;5055155;28;20075;-35
2022/11/12 12:16:06;;;;;;;5.43;4.50;;;13.50;78.10;;;;;;5054979;28;20050;-33
2022/11/12 12:18:40;;;;;;;6.18;4.82;;;13.60;78.00;;;;;;5073045;28;20032;-30
2022/11/12 12:21:14;;;;;;;5.95;4.60;;;13.60;78.40;;;;;;5072963;28;20510;-33
2022/11/12 12:23:55;;;;;;;5.13;4.35;;;13.70;77.70;;;;;;5073167;28;20103;-29
2022/11/12 12:26:50;;;;;;;6.05;4.60;;;13.80;77.50;;;;;;5073014;28;20028;-42
2022/11/12 12:29:31;;;;;;;5.38;4.38;;;13.80;77.40;;;;;;5068637;28;20036;-43
2022/11/12 12:32:11;;;;;;;6.55;4.63;;;13.90;77.20;;;;;;5072662;28;20036;-38
2022/11/12 12:34:42;;;;;;;5.70;4.60;;;13.90;77.10;;;;;;5072824;28;20059;-38
2022/11/12 12:37:59;;;;;;;5.60;4.47;;;14.00;77.00;;;;;;5072599;28;20021;-40
2022/11/12 12:40:36;;;;;;;5.38;4.30;;;14.10;76.80;;;;;;5027386;28;20041;-41
2022/11/12 12:43:12;;;;;;;6.70;4.40;;;14.10;76.70;;;;;;5072512;28;20024;-40
2022/11/12 12:45:41;;;;;;;6.22;4.70;;;14.10;76.60;;;;;;5072858;28;20028;-38
2022/11/12 12:48:18;;;;;;;6.68;4.70;;;14.20;76.60;;;;;;5072336;28;20397;-39
2022/11/12 12:50:44;;;;;;;6.55;5.05;;;14.30;76.50;;;;;;5072285;28;20051;-39
2022/11/12 12:53:28;;;;;;;6.35;4.15;;;14.30;77.10;;;;;;5072272;28;20074;-38
2022/11/12 12:55:59;;;;;;;5.18;4.60;;;14.40;76.30;;;;;;5072699;28;20066;-38
2022/11/12 12:58:32;;;;;;;6.53;4.55;;;14.50;76.10;;;;;;5072222;28;20037;-39
2022/11/12 13:01:12;;;;;;;6.22;4.38;;;14.50;76.10;;;;;;5071704;28;20075;-41
2022/11/12 13:04:04;;;;;;;6.07;4.85;;;14.50;76.50;;;;;;5072157;28;20037;-43
2022/11/12 13:06:51;;;;;;;7.82;4.57;;;14.70;75.90;;;;;;5072317;28;20020;-41
2022/11/12 13:09:16;;;;;;;9.18;5.10;;;14.70;75.80;;;;;;5053896;28;20021;-42
2022/11/12 13:14:35;;;;;;;5.38;4.68;;;14.80;75.60;;;;;;5072160;28;20150;-42
2022/11/12 13:17:00;;;;;;;6.25;4.80;;;14.90;75.60;;;;;;5072334;28;20424;-41
2022/11/12 13:19:28;;;;;;;6.70;4.78;;;14.90;75.50;;;;;;5072107;28;20078;-39
2022/11/12 13:22:16;;;;;;;5.53;4.95;;;15.00;75.40;;;;;;5071841;28;20052;-40
2022/11/12 13:25:01;;;;;;;6.32;4.72;;;15.00;75.10;;;;;;5072143;28;20016;-40
2022/11/12 13:27:39;;;;;;;5.00;4.50;;;15.10;75.10;;;;;;5071600;28;20163;-42
2022/11/12 13:30:08;;;;;;;5.40;4.38;;;15.10;75.00;;;;;;5071968;28;20392;-42
2022/11/12 13:32:46;;;;;;;6.35;4.82;;;15.10;74.90;;;;;;5072174;28;20388;-42
2022/11/12 13:35:19;;;;;;;6.90;4.80;;;15.20;74.90;;;;;;5071888;28;20333;-39